Time;durP1;ratioP1;P1;durP2;ratioP2;P2;SDS_P1;SDS_P2;PMS_P1;PMS_P2;Temp;Humidity;BMP_temperature;BMP_pressure;BME280_temperature;BME280_humidity;BME280_pressure;Samples;Min_cycle;Max_cycle;Signal;HPM_P1;HPM_P2
2021/10/05 00:00:32;;;;;;;0.50;0.10;;;10.60;99.90;;;;;;6144245;23;20056;-85
2021/10/05 00:02:58;;;;;;;1.08;0.15;;;10.60;99.90;;;;;;6143879;23;20015;-84
2021/10/05 00:05:24;;;;;;;0.88;0.20;;;10.60;99.90;;;;;;6144191;23;20009;-86
2021/10/05 00:07:50;;;;;;;2.55;0.20;;;10.60;99.90;;;;;;6144006;23;20009;-84
2021/10/05 00:10:16;;;;;;;1.15;0.10;;;10.60;99.90;;;;;;6169067;23;20014;-85
2021/10/05 00:12:42;;;;;;;0.50;0.10;;;10.50;99.90;;;;;;6119103;23;20012;-85
2021/10/05 00:15:11;;;;;;;0.60;0.10;;;10.50;99.90;;;;;;6143514;23;20017;-84
2021/10/05 00:17:37;;;;;;;1.85;0.40;;;10.50;99.90;;;;;;6143640;23;20096;-84
2021/10/05 00:20:06;;;;;;;2.30;0.25;;;10.50;99.90;;;;;;6143938;23;20017;-84
2021/10/05 00:22:32;;;;;;;1.42;0.25;;;10.50;99.90;;;;;;6143729;23;20025;-84
2021/10/05 00:24:57;;;;;;;1.00;0.17;;;10.50;99.90;;;;;;6143780;23;20006;-84
2021/10/05 00:27:23;;;;;;;0.50;0.20;;;10.50;99.90;;;;;;6168491;23;20077;-84
2021/10/05 00:29:48;;;;;;;1.83;0.20;;;10.60;99.90;;;;;;6168455;23;20006;-84
2021/10/05 00:32:14;;;;;;;1.17;0.20;;;10.50;99.90;;;;;;6168653;23;20088;-84
2021/10/05 00:34:40;;;;;;;1.05;0.20;;;10.60;99.90;;;;;;6144089;23;20036;-84
2021/10/05 00:37:05;;;;;;;2.22;0.30;;;10.60;99.90;;;;;;6143973;23;20044;-85
2021/10/05 00:39:31;;;;;;;1.45;0.20;;;10.60;99.90;;;;;;6143889;23;20005;-84
2021/10/05 00:41:57;;;;;;;1.65;0.20;;;10.60;99.90;;;;;;6143868;23;20009;-84
2021/10/05 00:47:22;;;;;;;1.35;0.57;;;10.50;99.90;;;;;;6083926;23;20100;-85
2021/10/05 00:49:49;;;;;;;1.67;0.20;;;10.50;99.90;;;;;;6084103;23;20015;-84
2021/10/05 00:52:16;;;;;;;1.85;0.20;;;10.50;99.90;;;;;;6108439;23;20074;-85
2021/10/05 00:54:42;;;;;;;2.15;0.20;;;10.50;99.90;;;;;;6108229;23;20011;-85
2021/10/05 00:57:10;;;;;;;1.77;0.20;;;10.50;99.90;;;;;;6108428;23;20443;-85
2021/10/05 00:59:36;;;;;;;1.30;0.20;;;10.50;99.90;;;;;;6108429;23;20013;-85
2021/10/05 01:02:07;;;;;;;2.35;0.30;;;10.40;99.90;;;;;;6108476;23;20006;-85
2021/10/05 01:04:32;;;;;;;0.88;0.20;;;10.30;99.90;;;;;;6084397;23;20007;-85
2021/10/05 01:07:10;;;;;;;1.15;0.20;;;10.30;99.90;;;;;;6108464;23;20017;-86
2021/10/05 01:09:36;;;;;;;1.10;0.10;;;10.40;99.90;;;;;;6108512;23;20007;-85
2021/10/05 01:12:02;;;;;;;1.83;0.30;;;10.30;99.90;;;;;;6108225;23;20006;-85
2021/10/05 01:14:28;;;;;;;0.73;0.20;;;10.40;99.90;;;;;;6084066;23;20006;-85
2021/10/05 01:16:56;;;;;;;3.92;0.22;;;10.40;99.90;;;;;;6059860;23;20029;-86
2021/10/05 01:19:21;;;;;;;0.70;0.10;;;10.30;99.90;;;;;;6108156;23;20450;-83
2021/10/05 01:21:47;;;;;;;1.70;0.20;;;10.30;99.90;;;;;;6060340;23;20011;-84
2021/10/05 01:24:15;;;;;;;2.25;0.22;;;10.30;99.90;;;;;;6114389;23;20017;-85
2021/10/05 01:26:41;;;;;;;2.30;0.20;;;10.30;99.90;;;;;;6092251;23;20034;-87
2021/10/05 01:29:11;;;;;;;0.60;0.20;;;10.30;99.90;;;;;;6116471;23;20049;-86
2021/10/05 01:31:46;;;;;;;2.13;0.20;;;10.30;99.90;;;;;;6116358;23;20085;-86
2021/10/05 01:34:13;;;;;;;2.58;0.70;;;10.30;99.90;;;;;;6116613;23;20010;-85
2021/10/05 01:36:39;;;;;;;1.30;0.20;;;10.30;99.90;;;;;;6116263;23;20435;-85
2021/10/05 01:39:07;;;;;;;1.30;0.20;;;10.30;99.90;;;;;;6140734;23;20006;-84
2021/10/05 01:41:33;;;;;;;0.60;0.20;;;10.30;99.90;;;;;;6115927;23;20443;-84
2021/10/05 01:44:00;;;;;;;1.00;0.20;;;10.30;99.90;;;;;;6091931;23;20010;-85
2021/10/05 01:46:25;;;;;;;1.92;0.30;;;10.30;99.90;;;;;;6127368;23;20025;-85
2021/10/05 01:48:51;;;;;;;0.75;0.30;;;10.30;99.90;;;;;;6120796;23;20009;-86
2021/10/05 01:51:16;;;;;;;1.00;0.30;;;10.30;99.90;;;;;;6116013;23;20010;-83
2021/10/05 01:53:42;;;;;;;0.93;0.28;;;10.20;99.90;;;;;;6142697;23;20001;-85
2021/10/05 01:56:09;;;;;;;0.85;0.20;;;10.30;99.90;;;;;;6120776;23;20017;-85
2021/10/05 01:58:34;;;;;;;1.17;0.30;;;10.30;99.90;;;;;;6120624;23;20005;-86
2021/10/05 02:01:01;;;;;;;1.95;0.20;;;10.30;99.90;;;;;;6120939;23;20054;-86
2021/10/05 02:03:28;;;;;;;1.88;0.20;;;10.20;99.90;;;;;;6120891;23;20053;-85
2021/10/05 02:05:53;;;;;;;1.77;0.60;;;10.20;99.90;;;;;;6145147;23;20005;-85
2021/10/05 02:08:19;;;;;;;1.13;0.30;;;10.20;99.90;;;;;;6120683;23;20074;-83
2021/10/05 02:10:45;;;;;;;1.45;0.30;;;10.20;99.90;;;;;;6120735;23;20012;-84
2021/10/05 02:13:11;;;;;;;1.55;0.30;;;10.30;99.90;;;;;;6120529;23;20013;-85
2021/10/05 02:15:37;;;;;;;2.95;0.40;;;10.30;99.90;;;;;;6144845;23;20068;-85
2021/10/05 02:18:04;;;;;;;1.02;0.30;;;10.30;99.90;;;;;;6120409;23;20064;-85
2021/10/05 02:20:30;;;;;;;0.98;0.25;;;10.30;99.90;;;;;;6120307;23;20010;-86
2021/10/05 02:22:55;;;;;;;2.55;0.40;;;10.30;99.90;;;;;;6120647;23;20029;-85
2021/10/05 02:25:21;;;;;;;0.85;0.30;;;10.30;99.90;;;;;;6120635;23;20009;-85
2021/10/05 02:27:47;;;;;;;0.88;0.38;;;10.20;99.90;;;;;;6120564;23;20033;-84
2021/10/05 02:30:13;;;;;;;3.88;0.32;;;10.30;99.90;;;;;;6144840;23;20009;-85
2021/10/05 02:32:39;;;;;;;0.57;0.25;;;10.30;99.90;;;;;;6144500;23;20061;-85
2021/10/05 02:35:06;;;;;;;4.13;0.40;;;10.30;99.90;;;;;;6170630;23;19997;-85
2021/10/05 02:37:32;;;;;;;0.80;0.30;;;10.30;99.90;;;;;;6144471;23;20037;-85
2021/10/05 02:40:00;;;;;;;0.98;0.30;;;10.30;99.90;;;;;;6120608;23;20006;-85
2021/10/05 02:42:26;;;;;;;1.80;0.30;;;10.20;99.90;;;;;;6119999;23;20060;-85
2021/10/05 02:45:49;;;;;;;1.52;0.40;;;10.20;99.90;;;;;;6144719;23;20316;-83
2021/10/05 02:48:14;;;;;;;2.08;0.30;;;10.20;99.90;;;;;;6056207;23;20033;-84
2021/10/05 02:50:40;;;;;;;1.25;0.30;;;10.20;99.90;;;;;;6080194;23;20038;-85
2021/10/05 02:53:06;;;;;;;2.03;0.40;;;10.20;99.90;;;;;;6080854;23;20022;-85
2021/10/05 02:55:31;;;;;;;2.13;0.40;;;10.20;99.90;;;;;;6056218;23;20019;-85
2021/10/05 02:57:57;;;;;;;1.20;0.47;;;10.20;99.90;;;;;;6056682;23;20459;-85
2021/10/05 03:00:22;;;;;;;1.48;0.40;;;10.20;99.90;;;;;;6056385;23;20042;-84
2021/10/05 03:02:48;;;;;;;1.08;0.45;;;10.20;99.90;;;;;;6056225;23;20007;-83
2021/10/05 03:05:14;;;;;;;1.15;0.30;;;10.20;99.90;;;;;;6056312;23;20011;-85
2021/10/05 03:07:39;;;;;;;1.27;0.45;;;10.20;99.90;;;;;;6056078;23;20006;-85
2021/10/05 03:10:05;;;;;;;0.80;0.30;;;10.20;99.90;;;;;;6056361;23;20062;-85
2021/10/05 03:12:31;;;;;;;1.63;0.40;;;10.20;99.90;;;;;;6056082;23;20011;-85
2021/10/05 03:14:57;;;;;;;1.70;0.50;;;10.20;99.90;;;;;;6056002;23;20046;-85
2021/10/05 03:17:22;;;;;;;1.60;0.50;;;10.20;99.90;;;;;;6056275;23;20029;-84
2021/10/05 03:19:48;;;;;;;2.00;0.40;;;10.20;99.90;;;;;;6080394;23;20122;-86
2021/10/05 03:22:13;;;;;;;1.25;0.40;;;10.20;99.90;;;;;;6055872;23;20400;-85
2021/10/05 03:24:40;;;;;;;1.60;0.40;;;10.20;99.90;;;;;;6075595;23;20451;-86
2021/10/05 03:27:06;;;;;;;1.35;0.50;;;10.20;99.90;;;;;;6115016;23;20031;-85
2021/10/05 03:29:32;;;;;;;2.97;0.40;;;10.20;99.90;;;;;;6115237;23;20010;-84
2021/10/05 03:31:58;;;;;;;1.92;0.45;;;10.20;99.90;;;;;;6139320;23;20061;-85
2021/10/05 03:34:23;;;;;;;4.10;1.83;;;10.20;99.90;;;;;;6114897;23;20010;-85
2021/10/05 03:36:49;;;;;;;1.83;0.57;;;10.20;99.90;;;;;;6090863;23;20025;-82
2021/10/05 03:39:15;;;;;;;1.10;0.47;;;10.10;99.90;;;;;;6139623;23;20017;-85
2021/10/05 03:41:40;;;;;;;1.48;0.40;;;10.10;99.90;;;;;;6114586;23;20010;-84
2021/10/05 03:44:06;;;;;;;2.78;0.40;;;10.10;99.90;;;;;;6139830;23;20006;-85
2021/10/05 03:46:32;;;;;;;2.03;0.50;;;10.10;99.90;;;;;;6122978;23;20022;-85
2021/10/05 03:48:57;;;;;;;1.83;0.60;;;10.20;99.90;;;;;;6145816;23;20006;-85
2021/10/05 03:51:23;;;;;;;1.83;0.60;;;10.20;99.90;;;;;;6121501;23;20013;-85
2021/10/05 03:53:48;;;;;;;4.30;0.50;;;10.20;99.90;;;;;;6171501;23;20001;-86
2021/10/05 03:56:14;;;;;;;2.00;0.60;;;10.20;99.90;;;;;;6119645;23;20013;-85
2021/10/05 03:58:40;;;;;;;2.17;0.60;;;10.20;99.90;;;;;;6119954;23;20335;-85
2021/10/05 04:01:05;;;;;;;2.00;0.50;;;10.20;99.90;;;;;;6168721;23;20009;-85
2021/10/05 04:03:34;;;;;;;3.25;0.73;;;10.20;99.90;;;;;;6119642;23;20064;-85
2021/10/05 04:06:00;;;;;;;3.58;0.68;;;10.20;99.90;;;;;;6168831;23;20029;-85
2021/10/05 04:08:25;;;;;;;3.05;0.65;;;10.20;99.90;;;;;;6119676;23;20010;-84
2021/10/05 04:10:51;;;;;;;2.10;0.50;;;10.20;99.90;;;;;;6119690;23;20010;-85
2021/10/05 04:13:16;;;;;;;1.83;0.52;;;10.10;99.90;;;;;;6143869;23;20010;-85
2021/10/05 04:15:43;;;;;;;2.15;0.70;;;10.20;99.90;;;;;;6119377;23;20208;-85
2021/10/05 04:18:09;;;;;;;2.53;0.60;;;10.10;99.90;;;;;;6119438;23;20005;-85
2021/10/05 04:20:35;;;;;;;1.98;0.95;;;10.20;99.90;;;;;;6170031;23;20012;-85
2021/10/05 04:23:01;;;;;;;2.35;0.90;;;10.20;99.90;;;;;;6143736;23;20005;-85
2021/10/05 04:25:26;;;;;;;5.35;0.80;;;10.20;99.90;;;;;;6144020;23;20020;-86
2021/10/05 04:27:52;;;;;;;2.15;0.80;;;10.20;99.90;;;;;;6119612;23;20448;-85
2021/10/05 04:30:20;;;;;;;2.63;0.70;;;10.20;99.90;;;;;;6143913;23;20029;-84
2021/10/05 04:32:45;;;;;;;2.60;0.90;;;10.20;99.90;;;;;;6143888;23;20334;-85
2021/10/05 04:35:11;;;;;;;2.63;1.30;;;10.10;99.90;;;;;;6119294;23;20457;-85
2021/10/05 04:37:38;;;;;;;6.13;1.00;;;10.10;99.90;;;;;;6119273;23;20012;-84
2021/10/05 04:40:06;;;;;;;3.65;0.90;;;10.10;99.90;;;;;;6168353;23;20449;-85
2021/10/05 04:42:32;;;;;;;1.83;0.80;;;10.20;99.90;;;;;;6143611;23;20013;-85
2021/10/05 04:44:58;;;;;;;2.67;0.60;;;10.10;99.90;;;;;;6143492;23;20084;-84
2021/10/05 04:47:23;;;;;;;1.70;0.70;;;10.10;99.90;;;;;;6143529;23;20073;-83
2021/10/05 04:49:49;;;;;;;1.98;0.70;;;10.10;99.90;;;;;;6168535;23;20028;-85
2021/10/05 04:52:15;;;;;;;2.67;0.90;;;10.10;99.90;;;;;;6143821;23;20036;-85
2021/10/05 04:54:41;;;;;;;2.58;0.90;;;10.10;99.90;;;;;;6143705;23;20005;-84
2021/10/05 04:57:06;;;;;;;2.00;0.98;;;10.10;99.90;;;;;;6143995;23;20025;-84
2021/10/05 04:59:33;;;;;;;2.95;0.80;;;10.10;99.90;;;;;;6169573;23;19998;-84
2021/10/05 05:01:58;;;;;;;3.65;0.93;;;10.10;99.90;;;;;;6145630;23;20398;-86
2021/10/05 05:04:24;;;;;;;2.42;1.02;;;10.00;99.90;;;;;;6146305;23;20006;-86
2021/10/05 05:06:49;;;;;;;2.05;1.00;;;10.00;99.90;;;;;;6145631;23;20069;-86
2021/10/05 05:09:15;;;;;;;3.83;1.17;;;10.00;99.90;;;;;;6145873;23;20318;-86
2021/10/05 05:11:41;;;;;;;2.53;0.98;;;10.10;99.90;;;;;;6145948;23;20009;-85
2021/10/05 05:14:11;;;;;;;3.70;1.02;;;10.00;99.90;;;;;;6145989;23;20002;-86
2021/10/05 05:16:38;;;;;;;2.30;0.80;;;10.10;99.90;;;;;;6143472;23;20018;-85
2021/10/05 05:19:04;;;;;;;4.03;1.08;;;10.00;99.90;;;;;;6145314;23;20014;-85
2021/10/05 05:21:30;;;;;;;3.53;0.85;;;10.00;99.90;;;;;;6170044;23;20013;-85
2021/10/05 05:23:56;;;;;;;2.28;1.02;;;10.10;99.90;;;;;;6145425;23;20378;-86
2021/10/05 05:26:23;;;;;;;2.33;1.02;;;10.10;99.90;;;;;;6145801;23;20009;-86
2021/10/05 05:28:48;;;;;;;2.30;0.95;;;10.10;99.90;;;;;;6145566;23;20029;-87
2021/10/05 05:31:14;;;;;;;3.53;1.08;;;10.10;99.90;;;;;;6145126;23;20068;-87
2021/10/05 05:33:40;;;;;;;2.70;0.93;;;10.00;99.90;;;;;;6145714;23;20028;-86
2021/10/05 05:36:05;;;;;;;3.78;1.10;;;10.10;99.90;;;;;;6145376;23;20018;-86
2021/10/05 05:38:31;;;;;;;2.45;1.10;;;10.00;99.90;;;;;;6145726;23;20001;-87
2021/10/05 05:40:57;;;;;;;6.03;1.30;;;10.10;99.90;;;;;;6145586;23;20092;-86
2021/10/05 05:43:23;;;;;;;3.65;1.02;;;10.10;99.90;;;;;;6146781;23;20012;-85
2021/10/05 05:45:48;;;;;;;2.00;1.23;;;10.10;99.90;;;;;;6144723;23;20131;-87
2021/10/05 05:48:14;;;;;;;2.60;1.23;;;10.00;99.90;;;;;;6145331;23;20041;-86
2021/10/05 05:50:40;;;;;;;2.40;1.00;;;10.00;99.90;;;;;;6145514;23;20005;-86
2021/10/05 05:53:06;;;;;;;2.40;1.13;;;10.00;99.90;;;;;;6145154;23;20010;-87
2021/10/05 05:55:31;;;;;;;4.00;0.93;;;10.00;99.90;;;;;;6145299;23;20040;-86
2021/10/05 05:57:57;;;;;;;2.55;1.30;;;10.00;99.90;;;;;;6145245;23;20009;-86
2021/10/05 06:00:24;;;;;;;2.17;1.20;;;10.00;99.90;;;;;;6144809;23;20013;-85
2021/10/05 06:02:49;;;;;;;2.83;1.08;;;10.00;99.90;;;;;;6144559;23;20010;-86
2021/10/05 06:05:15;;;;;;;2.80;1.20;;;10.10;99.90;;;;;;6118916;23;20088;-87
2021/10/05 06:07:41;;;;;;;7.30;1.10;;;10.10;99.90;;;;;;6143264;23;20446;-86
2021/10/05 06:10:08;;;;;;;2.95;1.00;;;10.10;99.90;;;;;;6144192;23;20001;-85
2021/10/05 06:12:40;;;;;;;2.78;1.23;;;10.10;99.90;;;;;;6168594;23;20013;-87
2021/10/05 06:15:17;;;;;;;2.50;0.95;;;10.10;99.90;;;;;;6143856;23;20036;-86
2021/10/05 06:17:44;;;;;;;2.00;0.98;;;10.10;99.90;;;;;;6144444;23;20431;-87
2021/10/05 06:20:13;;;;;;;2.50;0.90;;;10.10;99.90;;;;;;6144081;23;20391;-86
2021/10/05 06:22:39;;;;;;;2.50;0.80;;;10.20;99.90;;;;;;6144004;23;20005;-86
2021/10/05 06:25:13;;;;;;;3.95;0.90;;;10.20;99.90;;;;;;6144089;23;20009;-86
2021/10/05 06:27:39;;;;;;;4.35;0.77;;;10.20;99.90;;;;;;6119761;23;20009;-86
2021/10/05 06:30:07;;;;;;;2.53;1.00;;;10.20;99.90;;;;;;6143818;23;20442;-85
2021/10/05 06:32:32;;;;;;;1.75;0.60;;;10.20;99.90;;;;;;6143879;23;20096;-86
2021/10/05 06:34:58;;;;;;;2.42;0.80;;;10.20;99.90;;;;;;6144266;23;20006;-86
2021/10/05 06:37:24;;;;;;;4.10;0.70;;;10.20;99.90;;;;;;6143682;23;20017;-86
2021/10/05 06:39:49;;;;;;;2.03;0.73;;;10.20;99.90;;;;;;6119584;23;20016;-86
2021/10/05 06:42:15;;;;;;;1.90;0.70;;;10.30;99.90;;;;;;6144241;23;20001;-87
2021/10/05 06:45:05;;;;;;;2.30;0.70;;;10.20;99.90;;;;;;6143550;23;20005;-86
2021/10/05 06:47:31;;;;;;;2.20;0.70;;;10.30;99.90;;;;;;6137850;23;20018;-86
2021/10/05 06:49:58;;;;;;;2.55;1.00;;;10.30;99.90;;;;;;6113502;23;20120;-87
2021/10/05 06:52:24;;;;;;;2.13;0.68;;;10.30;99.90;;;;;;6113212;23;20030;-86
2021/10/05 06:54:49;;;;;;;2.47;0.75;;;10.30;99.90;;;;;;6113308;23;20037;-86
2021/10/05 06:57:15;;;;;;;2.00;0.63;;;10.40;99.90;;;;;;6113156;23;20487;-86
2021/10/05 06:59:41;;;;;;;2.50;0.98;;;10.30;99.90;;;;;;6113149;23;20013;-85
2021/10/05 07:02:07;;;;;;;2.65;0.75;;;10.40;99.90;;;;;;6137539;23;20116;-86
2021/10/05 07:04:32;;;;;;;3.80;0.80;;;10.40;99.90;;;;;;6079006;23;20053;-84
2021/10/05 07:06:58;;;;;;;3.45;0.80;;;10.40;99.90;;;;;;6110577;23;20010;-84
2021/10/05 07:09:23;;;;;;;2.40;0.82;;;10.40;99.90;;;;;;6111656;23;20041;-85
2021/10/05 07:11:49;;;;;;;1.77;0.85;;;10.40;99.90;;;;;;6112836;23;20522;-86
2021/10/05 07:14:15;;;;;;;2.83;0.82;;;10.40;99.90;;;;;;6112981;23;20068;-85
2021/10/05 07:16:41;;;;;;;2.55;1.08;;;10.50;99.90;;;;;;6112630;23;20143;-85
2021/10/05 07:19:06;;;;;;;3.15;0.90;;;10.50;99.90;;;;;;6112938;23;20010;-86
2021/10/05 07:21:32;;;;;;;2.50;0.93;;;10.60;99.90;;;;;;6112682;23;20009;-85
2021/10/05 07:23:58;;;;;;;2.95;0.80;;;10.70;99.90;;;;;;6116858;23;20037;-85
2021/10/05 07:26:23;;;;;;;2.92;1.10;;;10.80;99.90;;;;;;6138232;23;20017;-86
2021/10/05 07:28:49;;;;;;;2.80;1.30;;;10.90;99.90;;;;;;6118297;23;20453;-84
2021/10/05 07:31:15;;;;;;;2.83;1.30;;;11.00;99.90;;;;;;6119231;23;20084;-84
2021/10/05 07:33:41;;;;;;;3.30;1.23;;;11.10;99.90;;;;;;6119348;23;20276;-85
2021/10/05 07:36:07;;;;;;;2.50;1.08;;;11.20;99.90;;;;;;6119066;23;20021;-87
2021/10/05 07:38:32;;;;;;;3.15;1.60;;;11.30;99.90;;;;;;6118868;23;20092;-86
2021/10/05 07:40:58;;;;;;;4.18;0.98;;;11.50;99.90;;;;;;6118898;23;20013;-84
2021/10/05 07:43:24;;;;;;;2.67;1.00;;;11.60;99.90;;;;;;6167511;23;20088;-84
2021/10/05 07:45:52;;;;;;;1.95;0.77;;;11.60;99.90;;;;;;6118414;23;20024;-83
2021/10/05 07:48:18;;;;;;;3.72;0.82;;;11.80;99.90;;;;;;6143249;23;20016;-86
2021/10/05 07:50:43;;;;;;;2.30;0.80;;;12.00;99.90;;;;;;6143092;23;20096;-85
2021/10/05 07:53:09;;;;;;;3.92;1.10;;;12.20;99.90;;;;;;6143222;23;20016;-85
2021/10/05 07:55:34;;;;;;;3.15;1.25;;;12.40;99.90;;;;;;6142924;23;20097;-84
2021/10/05 07:58:01;;;;;;;3.85;1.58;;;12.40;99.90;;;;;;6142998;23;20006;-84
2021/10/05 08:00:27;;;;;;;4.13;1.30;;;12.30;99.90;;;;;;6143216;23;20017;-84
2021/10/05 08:02:54;;;;;;;3.65;1.13;;;12.20;99.90;;;;;;6143264;23;20009;-83
2021/10/05 08:05:20;;;;;;;3.63;1.65;;;12.20;99.90;;;;;;6143180;23;20040;-85
2021/10/05 08:07:54;;;;;;;3.67;1.30;;;12.20;99.90;;;;;;6143077;23;20009;-85
2021/10/05 08:10:20;;;;;;;3.42;1.33;;;12.20;99.90;;;;;;6143393;23;20006;-85
2021/10/05 08:12:46;;;;;;;3.20;1.65;;;12.30;99.90;;;;;;6143084;23;20014;-84
2021/10/05 08:15:12;;;;;;;4.07;1.40;;;12.40;99.90;;;;;;6142236;23;20080;-85
2021/10/05 08:17:38;;;;;;;4.28;1.52;;;12.60;99.90;;;;;;6142706;23;20092;-85
2021/10/05 08:20:04;;;;;;;2.85;1.08;;;12.50;99.90;;;;;;6142980;23;20001;-86
2021/10/05 08:22:30;;;;;;;3.10;1.30;;;12.40;99.90;;;;;;6142976;23;20377;-85
2021/10/05 08:24:56;;;;;;;3.65;1.67;;;12.30;99.90;;;;;;6167459;23;20025;-84
2021/10/05 08:27:21;;;;;;;2.75;1.63;;;12.50;99.90;;;;;;6142257;23;20016;-84
2021/10/05 08:29:48;;;;;;;3.67;1.73;;;12.80;99.90;;;;;;6143330;23;20017;-88
2021/10/05 08:32:15;;;;;;;3.05;1.42;;;13.10;99.90;;;;;;6167689;23;20373;-86
2021/10/05 08:34:41;;;;;;;2.08;0.93;;;13.30;99.90;;;;;;6142905;23;20033;-87
2021/10/05 08:37:07;;;;;;;3.17;1.08;;;13.50;99.90;;;;;;6142826;23;20018;-88
2021/10/05 08:39:33;;;;;;;2.13;0.80;;;13.70;99.90;;;;;;6143059;23;20017;-86
2021/10/05 08:42:00;;;;;;;2.78;1.27;;;13.90;99.90;;;;;;6142767;23;20014;-85
2021/10/05 08:44:27;;;;;;;2.20;0.90;;;14.00;99.90;;;;;;6142575;23;20084;-85
2021/10/05 08:46:54;;;;;;;2.33;0.95;;;14.10;99.90;;;;;;6141055;23;20045;-88
2021/10/05 08:49:21;;;;;;;2.03;1.00;;;14.20;99.90;;;;;;6143397;23;20082;-89
2021/10/05 08:51:48;;;;;;;1.73;0.70;;;14.20;99.90;;;;;;6143201;23;20013;-87
2021/10/05 08:54:14;;;;;;;2.08;0.90;;;14.40;99.90;;;;;;6143677;23;20032;-87
2021/10/05 08:56:44;;;;;;;2.90;0.70;;;14.50;99.90;;;;;;6143173;23;20037;-89
2021/10/05 08:59:10;;;;;;;;;;;14.50;99.90;;;;;;6138933;23;20010;-87
2021/10/05 09:01:38;;;;;;;2.17;0.70;;;14.70;99.90;;;;;;6140115;23;20381;-86
2021/10/05 09:04:05;;;;;;;2.17;0.50;;;14.70;99.90;;;;;;6138746;23;20016;-88
2021/10/05 09:06:32;;;;;;;2.97;0.75;;;14.90;99.90;;;;;;6167957;23;20009;-88
2021/10/05 09:09:01;;;;;;;1.70;0.60;;;14.80;99.90;;;;;;6138893;23;20013;-86
2021/10/05 09:11:37;;;;;;;1.27;0.40;;;14.90;99.90;;;;;;6113269;23;20093;-84
2021/10/05 09:14:03;;;;;;;1.70;0.60;;;14.90;99.90;;;;;;6143363;23;20021;-87
2021/10/05 09:16:30;;;;;;;2.78;0.70;;;15.10;99.90;;;;;;6142969;23;20013;-86
2021/10/05 09:19:09;;;;;;;3.53;0.73;;;15.20;99.90;;;;;;6118867;23;20393;-87
2021/10/05 09:21:46;;;;;;;1.58;0.50;;;15.30;99.90;;;;;;6167216;23;20508;-86
2021/10/05 09:24:12;;;;;;;3.03;0.55;;;15.60;99.90;;;;;;6142749;23;20002;-88
2021/10/05 09:26:42;;;;;;;1.77;0.52;;;15.70;99.90;;;;;;6142681;23;20088;-86
2021/10/05 09:29:32;;;;;;;1.27;0.57;;;15.60;99.90;;;;;;6138368;23;20053;-86
2021/10/05 09:32:14;;;;;;;4.00;0.40;;;15.80;99.90;;;;;;6102795;23;20242;-86
2021/10/05 09:34:50;;;;;;;1.23;0.38;;;15.90;99.90;;;;;;6138199;23;20013;-85
2021/10/05 09:37:32;;;;;;;1.55;0.40;;;16.00;99.90;;;;;;6142434;23;20018;-87
2021/10/05 09:40:03;;;;;;;1.17;0.40;;;16.00;99.90;;;;;;6142864;23;20006;-87
2021/10/05 09:42:32;;;;;;;1.50;0.50;;;16.10;99.90;;;;;;6142373;23;20010;-87
2021/10/05 09:45:08;;;;;;;1.23;0.40;;;16.00;99.90;;;;;;6143074;23;20077;-86
2021/10/05 09:47:48;;;;;;;4.13;0.63;;;16.10;99.90;;;;;;6114642;23;20018;-87
2021/10/05 09:50:24;;;;;;;2.15;0.50;;;16.00;99.90;;;;;;6139447;23;20073;-85
2021/10/05 09:52:54;;;;;;;1.25;0.43;;;16.20;99.90;;;;;;6139477;23;20006;-86
2021/10/05 09:55:23;;;;;;;2.85;0.50;;;16.40;99.90;;;;;;6110040;23;20050;-85
2021/10/05 09:57:50;;;;;;;2.20;0.50;;;16.40;99.90;;;;;;6089930;23;20025;-86
2021/10/05 10:00:18;;;;;;;1.15;0.40;;;16.30;99.90;;;;;;6139141;23;20061;-86
2021/10/05 10:02:48;;;;;;;11.52;1.63;;;16.50;99.90;;;;;;6139099;23;20010;-85
2021/10/05 10:05:22;;;;;;;1.83;0.40;;;16.70;99.90;;;;;;6139351;23;20013;-85
2021/10/05 10:07:50;;;;;;;2.55;0.35;;;16.70;99.90;;;;;;6090138;23;20068;-84
2021/10/05 10:10:19;;;;;;;2.85;0.50;;;16.70;99.90;;;;;;6109310;23;20010;-83
2021/10/05 10:12:57;;;;;;;2.38;0.38;;;16.90;99.90;;;;;;6114120;23;20065;-86
2021/10/05 10:15:26;;;;;;;0.90;0.40;;;17.00;99.90;;;;;;6114166;23;20014;-84
2021/10/05 10:18:06;;;;;;;1.42;0.40;;;16.90;99.90;;;;;;6139299;23;20036;-86
2021/10/05 10:20:34;;;;;;;2.40;0.38;;;16.90;99.90;;;;;;6139383;23;20006;-86
2021/10/05 10:22:59;;;;;;;1.05;0.30;;;17.20;99.90;;;;;;6114801;23;20073;-87
2021/10/05 10:25:33;;;;;;;2.30;0.40;;;17.40;99.90;;;;;;6115697;23;20077;-86
2021/10/05 10:28:13;;;;;;;2.15;0.28;;;17.20;99.90;;;;;;6098238;23;20026;-86
2021/10/05 10:30:49;;;;;;;4.03;0.30;;;17.30;99.90;;;;;;6111793;23;20025;-85
2021/10/05 10:33:16;;;;;;;2.50;0.40;;;17.40;99.90;;;;;;6114422;23;20073;-87
2021/10/05 10:35:52;;;;;;;2.28;0.38;;;17.30;99.90;;;;;;6114384;23;20025;-86
2021/10/05 10:38:22;;;;;;;3.03;0.30;;;17.50;99.90;;;;;;6139206;23;20403;-87
2021/10/05 10:40:48;;;;;;;;;;;17.40;99.90;;;;;;6114530;23;20013;-86
2021/10/05 10:43:16;;;;;;;2.63;0.35;;;17.40;99.90;;;;;;6109037;23;19988;-90
2021/10/05 10:45:51;;;;;;;1.23;0.30;;;17.60;99.90;;;;;;6136648;23;20100;-87
2021/10/05 10:48:35;;;;;;;2.00;0.30;;;17.70;99.90;;;;;;6114512;23;20006;-86
2021/10/05 10:51:14;;;;;;;3.35;0.30;;;17.80;99.90;;;;;;6114425;23;20082;-87
2021/10/05 10:53:42;;;;;;;2.80;0.40;;;17.90;99.90;;;;;;6114621;23;20010;-87
2021/10/05 10:56:08;;;;;;;0.68;0.20;;;17.80;99.90;;;;;;6114166;23;20022;-85
2021/10/05 10:58:40;;;;;;;3.05;0.32;;;17.80;99.90;;;;;;6114162;23;20507;-86
2021/10/05 11:01:10;;;;;;;2.78;0.30;;;17.90;99.90;;;;;;6114609;23;20017;-88
2021/10/05 11:03:36;;;;;;;1.85;0.20;;;18.00;99.90;;;;;;6114420;23;20085;-86
2021/10/05 11:06:14;;;;;;;1.45;0.30;;;18.00;99.90;;;;;;6090610;23;20010;-86
2021/10/05 11:08:52;;;;;;;1.70;0.40;;;17.90;99.90;;;;;;6114143;23;20017;-86
2021/10/05 11:11:28;;;;;;;2.17;0.30;;;17.80;99.90;;;;;;6090714;23;20068;-87
2021/10/05 11:13:54;;;;;;;1.30;0.30;;;18.10;99.90;;;;;;6114823;23;20059;-86
2021/10/05 11:16:23;;;;;;;1.15;0.20;;;17.90;99.90;;;;;;6114807;23;20022;-89
2021/10/05 11:18:50;;;;;;;0.87;0.30;;;18.10;99.90;;;;;;6115244;23;20435;-88
2021/10/05 11:21:16;;;;;;;1.02;0.30;;;18.00;99.90;;;;;;6114689;23;20253;-83
2021/10/05 11:23:44;;;;;;;1.85;0.30;;;18.10;99.90;;;;;;6114216;23;20115;-91
2021/10/05 11:26:09;;;;;;;2.75;0.30;;;17.90;99.90;;;;;;6139145;23;20009;-88
2021/10/05 11:28:37;;;;;;;1.73;0.30;;;17.50;99.90;;;;;;6113848;23;20311;-86
2021/10/05 11:31:06;;;;;;;1.92;0.25;;;17.20;99.90;;;;;;6113730;23;20006;-85
2021/10/05 11:33:40;;;;;;;1.10;0.30;;;16.90;99.90;;;;;;6085850;23;20066;-88
2021/10/05 11:36:18;;;;;;;2.05;0.30;;;17.10;99.90;;;;;;6114422;23;20025;-86
2021/10/05 11:38:51;;;;;;;2.72;0.20;;;17.00;99.90;;;;;;6114203;23;20032;-85
2021/10/05 11:41:18;;;;;;;1.58;0.30;;;17.20;99.90;;;;;;6114112;23;20070;-85
2021/10/05 11:43:50;;;;;;;0.88;0.20;;;16.90;99.90;;;;;;6112574;23;20097;-86
2021/10/05 11:46:19;;;;;;;3.03;0.30;;;16.90;99.90;;;;;;6094110;23;20022;-87
2021/10/05 11:48:47;;;;;;;3.65;0.30;;;16.80;99.90;;;;;;6138365;23;20013;-86
2021/10/05 11:51:15;;;;;;;1.45;0.20;;;16.90;99.90;;;;;;6138664;23;20006;-84
2021/10/05 11:53:41;;;;;;;0.85;0.25;;;16.90;99.90;;;;;;6138511;23;20029;-88
2021/10/05 11:56:10;;;;;;;1.17;0.38;;;16.90;99.90;;;;;;6138376;23;20070;-87
2021/10/05 11:58:40;;;;;;;2.13;0.30;;;16.90;99.90;;;;;;6138627;23;20010;-88
2021/10/05 12:01:16;;;;;;;0.90;0.20;;;17.00;99.90;;;;;;6109103;23;20384;-86
2021/10/05 12:03:41;;;;;;;0.70;0.20;;;17.70;99.90;;;;;;6138487;23;20005;-88
2021/10/05 12:06:07;;;;;;;1.88;0.20;;;18.20;99.90;;;;;;6138607;23;20017;-87
2021/10/05 12:08:32;;;;;;;1.40;0.28;;;18.10;99.90;;;;;;6139858;23;20033;-89
2021/10/05 12:10:58;;;;;;;0.88;0.20;;;18.10;99.90;;;;;;6138582;23;20006;-87
2021/10/05 12:13:23;;;;;;;3.78;0.50;;;18.50;99.90;;;;;;6138607;23;20010;-87
2021/10/05 12:15:49;;;;;;;1.52;0.20;;;18.60;99.90;;;;;;6138102;23;20012;-88
2021/10/05 12:18:17;;;;;;;1.73;0.30;;;18.80;99.90;;;;;;6138626;23;20022;-87
2021/10/05 12:20:42;;;;;;;0.57;0.20;;;18.70;99.90;;;;;;6138169;23;20006;-87
2021/10/05 12:23:08;;;;;;;2.00;0.30;;;18.80;99.90;;;;;;6109121;23;20071;-88
2021/10/05 12:25:39;;;;;;;1.38;0.30;;;18.50;99.90;;;;;;6138260;23;20013;-88
2021/10/05 12:28:06;;;;;;;1.90;0.20;;;18.10;99.90;;;;;;6138208;23;20017;-87
2021/10/05 12:30:33;;;;;;;3.60;0.30;;;18.30;99.90;;;;;;6137969;23;20089;-91
2021/10/05 12:33:08;;;;;;;2.20;0.20;;;18.30;99.90;;;;;;6138617;23;20010;-88
2021/10/05 12:35:41;;;;;;;0.82;0.13;;;18.30;99.90;;;;;;6138232;23;20014;-88
2021/10/05 12:38:20;;;;;;;0.95;0.30;;;18.30;99.90;;;;;;6113949;23;20006;-87
2021/10/05 12:41:00;;;;;;;2.50;0.20;;;18.20;99.90;;;;;;6138467;23;20066;-87
2021/10/05 12:43:35;;;;;;;2.58;0.20;;;18.00;99.90;;;;;;6138706;23;20017;-88
2021/10/05 12:46:05;;;;;;;2.80;0.30;;;17.90;99.90;;;;;;6124433;23;20106;-85
2021/10/05 12:48:38;;;;;;;;;;;17.80;99.90;;;;;;6082169;23;20054;-85
2021/10/05 12:51:12;;;;;;;5.22;0.20;;;17.70;99.90;;;;;;6081755;23;19909;-86
2021/10/05 12:53:39;;;;;;;0.90;0.20;;;17.50;99.90;;;;;;6056579;23;20456;-85